createdAt,value
2016-06-17T00:00:41.994Z,49.68
2016-06-17T00:01:41.967Z,49.68
2016-06-17T00:02:41.954Z,49.58
2016-06-17T00:03:41.926Z,49.68
2016-06-17T00:04:41.915Z,49.68
2016-06-17T00:05:41.809Z,49.39
2016-06-17T00:06:41.968Z,49.1
2016-06-17T00:07:41.846Z,49.49
2016-06-17T00:08:41.835Z,49.39
2016-06-17T00:09:41.822Z,49.19
2016-06-17T00:10:41.639Z,48.81
2016-06-17T00:11:41.782Z,48.93
2016-06-17T00:12:41.771Z,48.74
2016-06-17T00:13:41.742Z,48.74
2016-06-17T00:14:41.730Z,48.35
2016-06-17T00:15:41.718Z,48.35
2016-06-17T00:16:41.691Z,48.44
2016-06-17T00:17:41.663Z,47.77
2016-06-17T00:18:41.650Z,47.86
2016-06-17T00:19:41.638Z,47.67
2016-06-17T00:20:41.610Z,47.86
2016-06-17T00:21:41.442Z,47.41
2016-06-17T00:22:41.414Z,47.69
2016-06-17T00:23:41.543Z,47.31
2016-06-17T00:24:41.530Z,47.41
2016-06-17T00:25:41.519Z,47.41
2016-06-17T00:26:41.491Z,47.41
2016-06-17T00:27:41.495Z,47.41
2016-06-17T00:28:41.482Z,47.31
2016-06-17T00:29:41.438Z,47.41
2016-06-17T00:30:41.411Z,47.48
2016-06-17T00:31:41.398Z,47.48
2016-06-17T00:32:41.387Z,47.67
2016-06-17T00:33:41.358Z,47.86
2016-06-17T00:34:41.347Z,47.77
2016-06-17T00:35:41.178Z,47.77
2016-06-17T00:36:41.151Z,48.25
2016-06-17T00:37:41.294Z,48.44
2016-06-17T00:38:41.267Z,48.06
2016-06-17T00:39:41.254Z,48.23
2016-06-17T00:40:41.242Z,48.71
2016-06-17T00:41:41.214Z,48.52
2016-06-17T00:42:41.203Z,48.9
2016-06-17T00:43:41.175Z,48.71
2016-06-17T00:44:41.146Z,49
2016-06-17T00:45:41.134Z,48.52
2016-06-17T00:46:41.122Z,48.9
2016-06-17T00:47:41.095Z,49.19
2016-06-17T00:48:41.082Z,49.19
2016-06-17T00:49:41.054Z,49.29
2016-06-17T00:50:41.041Z,49.19
2016-06-17T00:51:41.013Z,49.49
2016-06-17T00:52:41.016Z,49.29
2016-06-17T00:53:41.113Z,49.37
2016-06-17T00:54:40.960Z,49.37
2016-06-17T00:55:40.791Z,49.49
2016-06-17T00:56:40.919Z,49.37
2016-06-17T00:57:40.923Z,49.29
2016-06-17T00:58:40.879Z,49.29
2016-06-17T00:59:40.867Z,49.29
2016-06-17T01:00:40.855Z,49.29
2016-06-17T01:01:40.686Z,49
2016-06-17T01:02:40.830Z,48.61
2016-06-17T01:03:40.802Z,48.42
2016-06-17T01:04:40.789Z,48.52
2016-06-17T01:05:40.762Z,48.42
2016-06-17T01:06:40.751Z,48.32
2016-06-17T01:07:40.722Z,48.16
2016-06-17T01:08:40.711Z,47.96
2016-06-17T01:09:40.682Z,47.86
2016-06-17T01:10:40.670Z,47.48
2016-06-17T01:11:40.486Z,47.28
2016-06-17T01:12:40.630Z,47.28
2016-06-17T01:13:40.617Z,47.38
2016-06-17T01:14:40.574Z,46.9
2016-06-17T01:15:40.563Z,46.7
2016-06-17T01:16:40.550Z,46.61
2016-06-17T01:17:40.538Z,46.51
2016-06-17T01:18:40.510Z,46.12
2016-06-17T01:19:40.498Z,46.34
2016-06-17T01:20:40.470Z,46.32
2016-06-17T01:21:40.459Z,46.44
2016-06-17T01:22:40.273Z,46.25
2016-06-17T01:23:40.419Z,46.05
2016-06-17T01:24:40.405Z,46.15
2016-06-17T01:25:40.378Z,46.05
2016-06-17T01:26:40.366Z,45.95
2016-06-17T01:27:40.354Z,46.25
2016-06-17T01:28:40.341Z,46.53
2016-06-17T01:29:40.314Z,46.51
2016-06-17T01:30:40.145Z,46.32
2016-06-17T01:31:40.118Z,46.61
2016-06-17T01:32:40.247Z,46.51
2016-06-17T01:33:40.233Z,46.61
2016-06-17T01:34:40.237Z,46.8
2016-06-17T01:35:40.210Z,47.28
2016-06-17T01:36:40.183Z,47.26
2016-06-17T01:37:40.170Z,47.16
2016-06-17T01:38:40.143Z,47.45
2016-06-17T01:39:40.145Z,47.36
2016-06-17T01:40:40.118Z,47.55
2016-06-17T01:41:40.106Z,47.45
2016-06-17T01:42:39.937Z,47.84
2016-06-17T01:43:40.066Z,47.55
2016-06-17T01:44:40.038Z,47.55
2016-06-17T01:45:40.025Z,47.65
2016-06-17T01:46:40.014Z,47.55
2016-06-17T01:47:40.002Z,47.84
2016-06-17T01:48:39.973Z,47.94
2016-06-17T01:49:39.977Z,47.81
2016-06-17T01:50:39.934Z,47.91
2016-06-17T01:51:39.921Z,47.81
2016-06-17T01:52:39.910Z,47.91
2016-06-17T01:53:39.881Z,47.84
2016-06-17T01:54:39.869Z,47.55
2016-06-17T01:55:39.841Z,47.45
2016-06-17T01:56:39.816Z,47.36
2016-06-17T01:57:39.806Z,47.45
2016-06-17T01:58:39.778Z,47.36
2016-06-17T01:59:39.768Z,47.26
2016-06-17T02:00:39.741Z,47.16
2016-06-17T02:01:39.730Z,46.68
2016-06-17T02:02:39.703Z,46.61
2016-06-17T02:03:39.707Z,46.51
2016-06-17T02:04:39.694Z,46.22
2016-06-17T02:05:39.667Z,46.03
2016-06-17T02:06:39.655Z,46.03
2016-06-17T02:07:39.628Z,45.83
2016-06-17T02:08:39.601Z,46.03
2016-06-17T02:09:39.588Z,46.22
2016-06-17T02:10:39.561Z,45.74
2016-06-17T02:11:39.549Z,45.66
2016-06-17T02:12:39.537Z,45.47
2016-06-17T02:13:39.352Z,44.7
2016-06-17T02:14:39.497Z,44.89
2016-06-17T02:15:39.484Z,44.79
2016-06-17T02:16:39.457Z,44.6
2016-06-17T02:17:39.429Z,44.7
2016-06-17T02:18:39.417Z,44.7
2016-06-17T02:19:39.389Z,44.98
2016-06-17T02:20:39.377Z,45.28
2016-06-17T02:21:39.365Z,45.66
2016-06-17T02:22:39.336Z,45.74
2016-06-17T02:23:39.324Z,45.54
2016-06-17T02:24:39.297Z,46.12
2016-06-17T02:25:39.285Z,45.83
2016-06-17T02:26:39.257Z,46.03
2016-06-17T02:27:39.246Z,46.42
2016-06-17T02:28:39.232Z,45.93
2016-06-17T02:29:39.220Z,46.2
2016-06-17T02:30:39.209Z,46.3
2016-06-17T02:31:39.181Z,46.1
2016-06-17T02:32:39.169Z,46.1
2016-06-17T02:33:39.140Z,46.2
2016-06-17T02:34:38.972Z,46.58
2016-06-17T02:35:39.101Z,46.39
2016-06-17T02:36:38.933Z,46.49
2016-06-17T02:37:39.060Z,46.39
2016-06-17T02:38:38.892Z,46.58
2016-06-17T02:39:39.021Z,46.75
2016-06-17T02:40:39.008Z,46.68
2016-06-17T02:41:38.825Z,46.66
2016-06-17T02:42:38.969Z,47.24
2016-06-17T02:43:38.940Z,47.24
2016-06-17T02:44:38.913Z,47.43
2016-06-17T02:45:38.901Z,46.75
2016-06-17T02:46:38.733Z,47.24
2016-06-17T02:47:38.861Z,46.66
2016-06-17T02:48:38.849Z,46.37
2016-06-17T02:49:38.836Z,46.49
2016-06-17T02:50:38.793Z,46.49
2016-06-17T02:51:38.781Z,46.1
2016-06-17T02:52:38.612Z,46.39
2016-06-17T02:53:38.741Z,46.2
2016-06-17T02:54:38.729Z,46.1
2016-06-17T02:55:38.717Z,45.93
2016-06-17T02:56:38.688Z,46.12
2016-06-17T02:57:38.677Z,45.74
2016-06-17T02:58:38.680Z,45.74
2016-06-17T02:59:38.637Z,45.06
2016-06-17T03:00:38.609Z,44.96
2016-06-17T03:01:38.597Z,44.57
2016-06-17T03:02:38.584Z,44.77
2016-06-17T03:03:38.573Z,44.87
2016-06-17T03:04:38.388Z,44.77
2016-06-17T03:05:38.517Z,44.29
2016-06-17T03:06:38.505Z,44.4
2016-06-17T03:07:38.492Z,43.92
2016-06-17T03:08:38.465Z,44.02
2016-06-17T03:09:38.296Z,43.73
2016-06-17T03:10:38.425Z,43.82
2016-06-17T03:11:38.412Z,43.73
2016-06-17T03:12:38.401Z,43.92
2016-06-17T03:13:38.372Z,43.54
2016-06-17T03:14:38.345Z,43.63
2016-06-17T03:15:38.348Z,43.54
2016-06-17T03:16:38.337Z,43.99
2016-06-17T03:17:38.308Z,43.8
2016-06-17T03:18:38.296Z,43.99
2016-06-17T03:19:38.268Z,44.38
2016-06-17T03:20:38.240Z,44.48
2016-06-17T03:21:38.229Z,44.48
2016-06-17T03:22:38.217Z,44.75
2016-06-17T03:23:38.032Z,44.84
2016-06-17T03:24:38.160Z,45.14
2016-06-17T03:25:38.149Z,44.65
2016-06-17T03:26:38.121Z,44.75
2016-06-17T03:27:38.109Z,44.65
2016-06-17T03:28:38.096Z,45.14
2016-06-17T03:29:38.085Z,45.33
2016-06-17T03:30:37.900Z,45.62
2016-06-17T03:31:38.044Z,45.69
2016-06-17T03:32:38.032Z,45.69
2016-06-17T03:33:38.020Z,46.2
2016-06-17T03:34:37.991Z,46.2
2016-06-17T03:35:37.824Z,46.1
2016-06-17T03:36:37.967Z,45.98
2016-06-17T03:37:37.784Z,45.98
2016-06-17T03:38:37.913Z,45.98
2016-06-17T03:39:37.901Z,45.62
2016-06-17T03:40:37.731Z,45.69
2016-06-17T03:41:37.704Z,45.72
2016-06-17T03:42:37.847Z,45.52
2016-06-17T03:43:37.820Z,45.23
2016-06-17T03:44:37.637Z,44.84
2016-06-17T03:45:37.624Z,44.65
2016-06-17T03:46:37.769Z,45.14
2016-06-17T03:47:37.756Z,44.87
2016-06-17T03:48:37.573Z,44.38
2016-06-17T03:49:37.715Z,44.57
2016-06-17T03:50:37.688Z,44.19
2016-06-17T03:51:37.676Z,43.99
2016-06-17T03:52:37.492Z,43.71
2016-06-17T03:53:37.636Z,43.63
2016-06-17T03:54:37.608Z,43.44
2016-06-17T03:55:37.611Z,43.54
2016-06-17T03:56:37.584Z,43.63
2016-06-17T03:57:37.557Z,43.34
2016-06-17T03:58:37.403Z,43.15
2016-06-17T03:59:37.531Z,43.24
2016-06-17T04:00:37.520Z,43.24
2016-06-17T04:01:37.460Z,43.34
2016-06-17T04:02:37.480Z,43.34
2016-06-17T04:03:37.452Z,43.34
2016-06-17T04:04:37.423Z,43.73
2016-06-17T04:05:37.412Z,43.54
2016-06-17T04:06:37.400Z,43.63
2016-06-17T04:07:37.372Z,43.71
2016-06-17T04:08:37.203Z,43.9
2016-06-17T04:09:37.348Z,44.29
2016-06-17T04:10:37.319Z,44.38
2016-06-17T04:11:37.308Z,44.77
2016-06-17T04:12:37.298Z,44.87
2016-06-17T04:13:37.118Z,44.77
2016-06-17T04:14:37.250Z,44.94
2016-06-17T04:15:37.288Z,44.94
2016-06-17T04:16:37.231Z,45.23
2016-06-17T04:17:37.222Z,45.72
2016-06-17T04:18:37.195Z,45.72
2016-06-17T04:19:37.168Z,46.1
2016-06-17T04:20:37.157Z,46.1
2016-06-17T04:21:37.130Z,45.91
2016-06-17T04:22:37.135Z,46
2016-06-17T04:23:37.107Z,46.2
2016-06-17T04:24:37.080Z,45.98
2016-06-17T04:25:37.068Z,46.27
2016-06-17T04:26:37.056Z,46.17
2016-06-17T04:27:37.028Z,46.17
2016-06-17T04:28:37.001Z,46.2
2016-06-17T04:29:36.818Z,46.1
2016-06-17T04:30:36.962Z,46.27
2016-06-17T04:31:36.934Z,46.1
2016-06-17T04:32:36.923Z,46.2
2016-06-17T04:33:36.910Z,46.3
2016-06-17T04:34:36.742Z,46.3
2016-06-17T04:35:36.871Z,45.91
2016-06-17T04:36:36.875Z,46.39
2016-06-17T04:37:36.893Z,46.3
2016-06-17T04:38:36.818Z,46.1
2016-06-17T04:39:36.853Z,46.03
2016-06-17T04:40:36.638Z,45.93
2016-06-17T04:41:36.626Z,45.45
2016-06-17T04:42:36.753Z,45.64
2016-06-17T04:43:36.726Z,45.74
2016-06-17T04:44:36.713Z,45.74
2016-06-17T04:45:36.547Z,45.93
2016-06-17T04:46:36.690Z,45.25
2016-06-17T04:47:36.772Z,45.25
2016-06-17T04:48:36.790Z,45.28
2016-06-17T04:49:36.716Z,44.98
2016-06-17T04:50:36.516Z,44.96
2016-06-17T04:51:36.442Z,44.79
2016-06-17T04:52:36.649Z,44.6
2016-06-17T04:53:36.995Z,44.6
2016-06-17T04:54:36.530Z,45.28
2016-06-17T04:55:36.534Z,45.18
2016-06-17T04:56:36.569Z,45.28
2016-06-17T04:57:36.478Z,44.79
2016-06-17T04:58:36.467Z,44.67
2016-06-17T04:59:36.531Z,44.77
2016-06-17T05:00:36.566Z,45.16
2016-06-17T05:01:36.398Z,45.16
2016-06-17T05:02:36.386Z,45.83
2016-06-17T05:03:36.359Z,45.64
2016-06-17T05:04:36.346Z,45.54
2016-06-17T05:05:36.318Z,46.03
2016-06-17T05:06:36.337Z,45.93
2016-06-17T05:07:36.294Z,46.12
2016-06-17T05:08:36.266Z,46.3
2016-06-17T05:09:36.255Z,46.22
2016-06-17T05:10:36.225Z,46.1
2016-06-17T05:11:36.214Z,46.39
2016-06-17T05:12:36.046Z,46.58
2016-06-17T05:13:36.174Z,46.68
2016-06-17T05:14:36.162Z,47.26
2016-06-17T05:15:36.134Z,47.26
2016-06-17T05:16:36.121Z,47.26
2016-06-17T05:17:36.110Z,47.26
2016-06-17T05:18:35.956Z,47.26
2016-06-17T05:19:36.148Z,47.16
2016-06-17T05:20:36.043Z,47.63
2016-06-17T05:21:36.013Z,47.43
2016-06-17T05:22:36.017Z,47.43
2016-06-17T05:23:35.989Z,47.43
2016-06-17T05:24:36.134Z,47.33
2016-06-17T05:25:35.950Z,47.45
2016-06-17T05:26:35.938Z,47.53
2016-06-17T05:27:35.926Z,47.65
2016-06-17T05:28:35.804Z,47.36
2016-06-17T05:29:35.745Z,47.16
2016-06-17T05:30:35.873Z,47.16
2016-06-17T05:31:35.831Z,47.45
2016-06-17T05:32:36.068Z,46.88
2016-06-17T05:33:35.805Z,46.49
2016-06-17T05:34:35.903Z,46.58
2016-06-17T05:35:35.781Z,46.12
2016-06-17T05:36:35.816Z,46.22
2016-06-17T05:37:35.726Z,46.51
2016-06-17T05:38:35.745Z,46.03
2016-06-17T05:39:35.717Z,45.83
2016-06-17T05:40:35.517Z,46.03
2016-06-17T05:41:35.661Z,46.03
2016-06-17T05:42:35.633Z,46.12
2016-06-17T05:43:35.622Z,45.64
2016-06-17T05:44:35.593Z,45.74
2016-06-17T05:45:35.582Z,45.76
2016-06-17T05:46:35.553Z,45.18
2016-06-17T05:47:35.386Z,45.25
2016-06-17T05:48:35.545Z,45.16
2016-06-17T05:49:35.518Z,45.57
2016-06-17T05:50:35.505Z,45.45
2016-06-17T05:51:35.461Z,45.93
2016-06-17T05:52:35.387Z,45.64
2016-06-17T05:53:35.437Z,45.54
2016-06-17T05:54:35.441Z,46.12
2016-06-17T05:55:35.381Z,45.93
2016-06-17T05:56:35.370Z,46.03
2016-06-17T05:57:35.373Z,46.32
2016-06-17T05:58:35.329Z,46.39
2016-06-17T05:59:35.521Z,46.3
2016-06-17T06:00:35.305Z,46.1
2016-06-17T06:01:35.277Z,46.39
2016-06-17T06:02:35.266Z,46.68
2016-06-17T06:03:35.284Z,46.49
2016-06-17T06:04:35.209Z,46.68
2016-06-17T06:05:35.197Z,46.78
2016-06-17T06:06:35.216Z,46.88
2016-06-17T06:07:35.205Z,47.26
2016-06-17T06:08:35.146Z,47.36
2016-06-17T06:09:35.132Z,47.26
2016-06-17T06:10:35.105Z,47.16
2016-06-17T06:11:35.077Z,47.45
2016-06-17T06:12:35.065Z,47.33
2016-06-17T06:13:34.882Z,47.43
2016-06-17T06:14:35.025Z,47.43
2016-06-17T06:15:35.013Z,47.63
2016-06-17T06:16:34.986Z,47.91
2016-06-17T06:17:34.817Z,48.01
2016-06-17T06:18:34.961Z,47.81
2016-06-17T06:19:34.934Z,47.81
2016-06-17T06:20:34.920Z,47.63
2016-06-17T06:21:34.894Z,47.81
2016-06-17T06:22:34.881Z,47.72
2016-06-17T06:23:34.853Z,47.91
2016-06-17T06:24:34.685Z,48.01
2016-06-17T06:25:34.813Z,48.21
2016-06-17T06:26:34.802Z,48.21
2016-06-17T06:27:34.789Z,48.39
2016-06-17T06:28:34.762Z,47.94
2016-06-17T06:29:34.754Z,47.84
2016-06-17T06:30:34.732Z,48.03
2016-06-17T06:31:34.709Z,47.94
2016-06-17T06:32:34.702Z,47.84
2016-06-17T06:33:34.538Z,47.65
2016-06-17T06:34:34.700Z,47.84
2016-06-17T06:35:34.658Z,47.94
2016-06-17T06:36:34.647Z,47.74
2016-06-17T06:37:34.620Z,47.55
2016-06-17T06:38:34.454Z,47.55
2016-06-17T06:39:34.583Z,47.45
2016-06-17T06:40:34.572Z,47.55
2016-06-17T06:41:34.560Z,47.55
2016-06-17T06:42:34.377Z,47.48
2016-06-17T06:43:34.522Z,47.48
2016-06-17T06:44:34.494Z,47.28
2016-06-17T06:45:34.310Z,47.28
2016-06-17T06:46:34.438Z,47.28
2016-06-17T06:47:34.426Z,46.8
2016-06-17T06:48:34.570Z,46.9
2016-06-17T06:49:34.386Z,46.51
2016-06-17T06:50:34.546Z,46.51
2016-06-17T06:51:34.486Z,46.61
2016-06-17T06:52:34.475Z,46.03
2016-06-17T06:53:34.416Z,46.22
2016-06-17T06:54:34.310Z,46.03
2016-06-17T06:55:34.283Z,46.32
2016-06-17T06:56:34.378Z,46.32
2016-06-17T06:57:34.351Z,46.51
2016-06-17T06:58:34.402Z,46.32
2016-06-17T06:59:34.327Z,46.32
2016-06-17T07:00:34.315Z,46.42
2016-06-17T07:01:34.428Z,46.61
2016-06-17T07:02:34.149Z,46.7
2016-06-17T07:03:34.121Z,46.68
2016-06-17T07:04:33.969Z,46.78
2016-06-17T07:05:34.113Z,46.78
2016-06-17T07:06:34.102Z,46.97
2016-06-17T07:07:34.073Z,47.36
2016-06-17T07:08:34.030Z,47.16
2016-06-17T07:09:34.080Z,47.26
2016-06-17T07:10:34.177Z,47.26
2016-06-17T07:11:34.134Z,47.36
2016-06-17T07:12:34.106Z,47.55
2016-06-17T07:13:34.157Z,47.55
2016-06-17T07:14:34.129Z,47.45
2016-06-17T07:15:34.054Z,47.55
2016-06-17T07:16:34.026Z,47.45
2016-06-17T07:17:34.046Z,47.55
2016-06-17T07:18:34.048Z,47.45
2016-06-17T07:19:34.319Z,47.55
2016-06-17T07:20:33.836Z,47.55
2016-06-17T07:21:33.997Z,47.45
2016-06-17T07:22:33.797Z,47.45
2016-06-17T07:23:33.661Z,47.45
2016-06-17T07:24:33.914Z,47.45
2016-06-17T07:25:33.886Z,47.36
2016-06-17T07:26:33.701Z,47.84
2016-06-17T07:27:33.643Z,47.84
2016-06-17T07:28:33.740Z,47.84
2016-06-17T07:29:33.774Z,47.84
2016-06-17T07:30:33.825Z,47.84
2016-06-17T07:31:35.546Z,47.72
2016-06-17T07:32:33.894Z,47.91
2016-06-17T07:33:33.648Z,47.65
2016-06-17T07:34:33.636Z,47.74
2016-06-17T07:35:33.717Z,48.01
2016-06-17T07:36:33.627Z,47.72
2016-06-17T07:37:33.770Z,47.43
2016-06-17T07:38:33.602Z,47.55
2016-06-17T07:39:33.621Z,47.55
2016-06-17T07:40:33.453Z,47.43
2016-06-17T07:41:33.520Z,47.55
2016-06-17T07:42:33.334Z,47.36
2016-06-17T07:43:33.494Z,47.36
2016-06-17T07:44:36.405Z,47.26
2016-06-17T07:45:33.455Z,47.26
2016-06-17T07:46:33.490Z,47.45
2016-06-17T07:47:33.352Z,46.68
2016-06-17T07:48:33.481Z,46.58
2016-06-17T07:49:33.281Z,46.58
2016-06-17T07:50:33.315Z,46.49
2016-06-17T07:51:33.413Z,46.32
2016-06-17T07:52:33.401Z,46.3
2016-06-17T07:53:36.389Z,46.2
2016-06-17T07:54:33.345Z,46.32
2016-06-17T07:55:33.427Z,46.03
2016-06-17T07:56:33.399Z,46.12
2016-06-17T07:57:33.262Z,46.32
2016-06-17T07:58:33.343Z,46.12
2016-06-17T07:59:33.269Z,45.93
2016-06-17T08:04:53.349Z,46.03
2016-06-17T08:05:47.228Z,46.12
2016-06-17T08:06:47.059Z,45.74
2016-06-17T08:07:47.109Z,45.64
2016-06-17T08:08:47.660Z,45.64
2016-06-17T08:09:47.023Z,45.45
2016-06-17T08:10:46.980Z,45.35
2016-06-17T08:11:46.968Z,45.16
2016-06-17T08:12:47.032Z,45.25
2016-06-17T08:13:46.974Z,45.25
2016-06-17T08:14:47.008Z,45.23
2016-06-17T08:15:46.997Z,45.25
2016-06-17T08:16:46.984Z,45.42
2016-06-17T08:17:46.988Z,45.42
2016-06-17T08:18:46.898Z,45.83
2016-06-17T08:19:46.979Z,45.62
2016-06-17T08:20:46.920Z,45.62
2016-06-17T08:21:46.939Z,45.72
